Time;durP1;ratioP1;P1;durP2;ratioP2;P2;SDS_P1;SDS_P2;PMS_P1;PMS_P2;Temp;Humidity;BMP_temperature;BMP_pressure;BME280_temperature;BME280_humidity;BME280_pressure;Samples;Min_cycle;Max_cycle;Signal;HPM_P1;HPM_P2
2023/09/03 00:01:40;;;;;;;17.20;12.02;;;14.20;99.90;;;;;;5023095;28;20032;-74
2023/09/03 00:04:06;;;;;;;14.48;10.27;;;14.20;99.90;;;;;;5036230;28;20382;-74
2023/09/03 00:06:31;;;;;;;14.55;11.02;;;14.20;99.90;;;;;;5064240;28;20048;-74
2023/09/03 00:08:57;;;;;;;13.02;10.40;;;14.20;99.90;;;;;;5035484;28;20754;-74
2023/09/03 00:11:23;;;;;;;12.52;10.70;;;14.30;99.90;;;;;;5029661;28;20506;-78
2023/09/03 00:13:48;;;;;;;14.57;10.27;;;14.20;99.90;;;;;;5029055;28;20403;-77
2023/09/03 00:16:14;;;;;;;15.05;10.57;;;14.30;99.90;;;;;;5029803;28;20033;-73
2023/09/03 00:18:40;;;;;;;14.00;10.45;;;14.30;99.90;;;;;;5028440;28;20431;-78
2023/09/03 00:21:06;;;;;;;13.05;10.95;;;14.30;99.90;;;;;;5029507;28;20079;-74
2023/09/03 00:23:32;;;;;;;15.57;10.68;;;14.30;99.90;;;;;;5030370;28;20426;-78
2023/09/03 00:25:59;;;;;;;15.65;11.82;;;14.30;99.90;;;;;;5030080;28;20390;-78
2023/09/03 00:28:26;;;;;;;12.73;10.73;;;14.30;99.90;;;;;;5017727;28;20123;-74
2023/09/03 00:31:07;;;;;;;11.85;10.00;;;14.30;99.90;;;;;;5016784;28;20018;-79
2023/09/03 00:33:33;;;;;;;13.77;10.35;;;14.30;99.90;;;;;;5029456;28;20120;-79
2023/09/03 00:36:02;;;;;;;13.30;9.02;;;14.30;99.90;;;;;;5029638;28;20113;-79
2023/09/03 00:38:28;;;;;;;11.13;9.02;;;14.40;99.90;;;;;;5028401;28;20037;-74
2023/09/03 00:40:54;;;;;;;10.60;9.13;;;14.50;99.90;;;;;;5037613;28;20013;-78
2023/09/03 00:43:19;;;;;;;13.88;9.63;;;14.50;99.90;;;;;;5035418;28;20033;-79
2023/09/03 00:45:47;;;;;;;12.05;10.27;;;14.50;99.90;;;;;;5048823;28;20070;-74
2023/09/03 00:48:17;;;;;;;14.63;10.25;;;14.50;99.90;;;;;;5044222;28;20017;-79
2023/09/03 00:50:45;;;;;;;13.48;10.20;;;14.50;99.90;;;;;;5040382;28;20032;-74
2023/09/03 00:53:11;;;;;;;12.00;8.98;;;14.60;99.90;;;;;;5050907;28;20108;-79
2023/09/03 00:55:37;;;;;;;11.00;9.90;;;14.60;99.90;;;;;;5052019;28;20518;-74
2023/09/03 00:58:06;;;;;;;13.32;10.10;;;14.60;99.90;;;;;;5047742;28;20066;-79
2023/09/03 01:00:33;;;;;;;14.10;9.65;;;14.60;99.90;;;;;;5043220;28;20036;-79
2023/09/03 01:03:00;;;;;;;13.30;10.30;;;14.60;99.90;;;;;;5032838;28;20018;-74
2023/09/03 01:05:26;;;;;;;12.02;10.52;;;14.50;99.90;;;;;;5043271;28;20043;-73
2023/09/03 01:07:52;;;;;;;10.40;9.30;;;14.40;99.90;;;;;;5038189;28;20048;-78
2023/09/03 01:10:20;;;;;;;12.57;9.45;;;14.40;99.90;;;;;;5049528;28;20552;-74
2023/09/03 01:12:59;;;;;;;13.73;9.52;;;14.40;99.90;;;;;;5044479;28;20041;-79
2023/09/03 01:15:34;;;;;;;15.20;10.35;;;14.40;99.90;;;;;;5045758;28;20029;-80
2023/09/03 01:18:17;;;;;;;14.18;10.52;;;14.40;99.90;;;;;;5032791;28;20481;-73
2023/09/03 01:20:52;;;;;;;15.43;10.80;;;14.30;99.90;;;;;;5044776;28;20049;-79
2023/09/03 01:23:32;;;;;;;14.93;10.65;;;14.30;99.90;;;;;;5047093;28;20534;-80
2023/09/03 01:26:08;;;;;;;14.65;10.75;;;14.30;99.90;;;;;;5052104;28;20103;-74
2023/09/03 01:28:34;;;;;;;12.75;9.60;;;14.30;99.90;;;;;;5038766;28;20025;-79
2023/09/03 01:31:02;;;;;;;13.50;9.52;;;14.30;99.90;;;;;;5048118;28;20025;-79
2023/09/03 01:33:30;;;;;;;19.45;10.73;;;14.30;99.90;;;;;;5032355;28;20037;-78
2023/09/03 01:35:57;;;;;;;12.82;10.98;;;14.30;99.90;;;;;;5032412;28;20033;-74
2023/09/03 01:38:23;;;;;;;14.60;10.43;;;14.20;99.90;;;;;;5032386;28;20033;-79
2023/09/03 01:40:50;;;;;;;14.38;10.48;;;14.20;99.90;;;;;;5032157;28;20037;-74
2023/09/03 01:43:16;;;;;;;15.50;11.48;;;14.10;99.90;;;;;;5038855;28;20385;-79
2023/09/03 01:46:09;;;;;;;13.85;10.82;;;14.20;99.90;;;;;;5048211;28;20034;-74
2023/09/03 01:49:15;;;;;;;20.27;11.00;;;14.20;99.90;;;;;;5048680;28;20029;-75
2023/09/03 01:51:49;;;;;;;14.95;10.70;;;14.20;99.90;;;;;;4971180;28;20047;-79
2023/09/03 01:54:15;;;;;;;14.52;11.00;;;14.20;99.90;;;;;;4954847;28;20473;-79
2023/09/03 01:56:45;;;;;;;15.48;11.80;;;14.10;99.90;;;;;;4994335;28;20090;-73
2023/09/03 01:59:44;;;;;;;12.80;11.13;;;14.10;99.90;;;;;;5019791;28;20022;-74
2023/09/03 02:02:11;;;;;;;14.68;11.18;;;14.10;99.90;;;;;;5048464;28;20475;-79
2023/09/03 02:05:06;;;;;;;12.20;10.00;;;14.10;99.90;;;;;;5050978;28;20047;-79
2023/09/03 02:07:32;;;;;;;12.55;10.20;;;14.10;99.90;;;;;;5031887;28;20432;-75
2023/09/03 02:09:57;;;;;;;12.50;9.93;;;14.10;99.90;;;;;;5030136;28;20026;-75
2023/09/03 02:12:25;;;;;;;12.18;9.90;;;14.10;99.90;;;;;;5046375;28;20033;-74
2023/09/03 02:14:52;;;;;;;11.50;10.07;;;14.00;99.90;;;;;;5041339;28;20417;-75
2023/09/03 02:17:21;;;;;;;14.48;9.95;;;14.00;99.90;;;;;;5046545;28;20040;-79
2023/09/03 02:19:51;;;;;;;13.93;9.45;;;14.00;99.90;;;;;;5050495;28;20021;-79
2023/09/03 02:22:17;;;;;;;10.07;7.90;;;13.90;99.90;;;;;;5036359;28;20066;-73
2023/09/03 02:24:43;;;;;;;11.75;8.65;;;13.90;99.90;;;;;;5042126;28;20421;-79
2023/09/03 02:27:09;;;;;;;9.05;8.15;;;13.90;99.90;;;;;;5041545;28;20391;-78
2023/09/03 02:29:38;;;;;;;9.15;8.13;;;13.90;99.90;;;;;;5030520;28;20025;-74
2023/09/03 02:32:04;;;;;;;9.77;8.75;;;13.90;99.90;;;;;;5034634;28;20049;-79
2023/09/03 02:34:30;;;;;;;10.20;8.75;;;13.90;99.90;;;;;;5031626;28;20021;-78
2023/09/03 02:36:55;;;;;;;9.43;7.85;;;13.80;99.90;;;;;;5042983;28;20101;-78
2023/09/03 02:39:21;;;;;;;14.60;8.32;;;13.80;99.90;;;;;;5033245;28;20103;-79
2023/09/03 02:41:46;;;;;;;11.88;7.57;;;13.70;99.90;;;;;;5023032;28;20074;-79
2023/09/03 02:44:12;;;;;;;7.20;6.60;;;13.70;99.90;;;;;;5012493;28;20376;-73
2023/09/03 02:46:38;;;;;;;9.80;8.25;;;13.60;99.90;;;;;;5021433;28;20026;-73
2023/09/03 02:49:03;;;;;;;10.63;8.32;;;13.60;99.90;;;;;;5039490;28;20505;-78
2023/09/03 02:51:29;;;;;;;11.50;10.23;;;13.60;99.90;;;;;;5018278;28;20032;-73
2023/09/03 02:53:57;;;;;;;11.07;9.13;;;13.60;99.90;;;;;;5025664;28;20129;-73
2023/09/03 02:56:23;;;;;;;10.23;9.10;;;13.60;99.90;;;;;;5031031;28;20479;-73
2023/09/03 02:58:50;;;;;;;16.33;9.55;;;13.60;99.90;;;;;;5023535;28;20067;-73
2023/09/03 03:01:17;;;;;;;13.70;9.48;;;13.60;99.90;;;;;;5027757;28;20050;-78
2023/09/03 03:03:44;;;;;;;14.25;9.20;;;13.60;99.90;;;;;;5031213;28;20397;-74
2023/09/03 03:06:10;;;;;;;10.93;8.48;;;13.60;99.90;;;;;;5030063;28;20033;-78
2023/09/03 03:08:35;;;;;;;10.68;8.40;;;13.70;99.90;;;;;;5029734;28;20044;-78
2023/09/03 03:11:08;;;;;;;12.50;9.10;;;13.70;99.90;;;;;;5030968;28;20049;-73
2023/09/03 03:13:34;;;;;;;9.70;8.63;;;13.70;99.90;;;;;;5030887;28;20029;-74
2023/09/03 03:16:07;;;;;;;10.07;8.00;;;13.70;99.90;;;;;;5021657;28;20018;-79
2023/09/03 03:18:38;;;;;;;10.05;7.97;;;13.70;99.90;;;;;;5041197;28;20032;-74
2023/09/03 03:21:08;;;;;;;11.18;8.50;;;13.70;99.90;;;;;;5041282;28;20107;-74
2023/09/03 03:23:38;;;;;;;10.82;7.72;;;13.80;99.90;;;;;;5036719;28;20108;-79
2023/09/03 03:26:04;;;;;;;12.30;8.75;;;13.80;99.90;;;;;;5048452;28;20424;-74
2023/09/03 03:28:32;;;;;;;9.15;8.25;;;13.80;99.90;;;;;;5030711;28;20030;-73
2023/09/03 03:31:28;;;;;;;9.82;7.60;;;13.80;99.90;;;;;;5028461;28;20026;-79
2023/09/03 03:33:53;;;;;;;12.25;8.57;;;13.80;99.90;;;;;;5050002;28;20071;-74
2023/09/03 03:36:20;;;;;;;11.15;8.27;;;13.80;99.90;;;;;;5029464;28;20514;-79
2023/09/03 03:38:46;;;;;;;12.77;7.65;;;13.80;99.90;;;;;;5033217;28;20036;-74
2023/09/03 03:41:14;;;;;;;10.57;7.82;;;13.80;99.90;;;;;;5044996;28;20025;-74
2023/09/03 03:43:41;;;;;;;9.77;8.30;;;13.80;99.90;;;;;;5032687;28;20025;-79
2023/09/03 03:46:09;;;;;;;8.82;7.65;;;13.70;99.90;;;;;;5044643;28;20056;-79
2023/09/03 03:48:35;;;;;;;11.98;9.23;;;13.70;99.90;;;;;;5038402;28;20032;-75
2023/09/03 03:51:01;;;;;;;15.85;9.95;;;13.60;99.90;;;;;;5017578;28;20025;-74
2023/09/03 03:53:27;;;;;;;12.70;8.68;;;13.60;99.90;;;;;;5028843;28;20177;-74
2023/09/03 03:55:58;;;;;;;14.13;8.90;;;13.60;99.90;;;;;;5029975;28;20456;-79
2023/09/03 03:58:25;;;;;;;11.23;8.20;;;13.60;99.90;;;;;;5028880;28;20100;-74
2023/09/03 04:00:51;;;;;;;13.48;10.60;;;13.60;99.90;;;;;;5030204;28;20017;-79
2023/09/03 04:03:16;;;;;;;10.95;9.10;;;13.70;99.90;;;;;;5029321;28;20030;-78
2023/09/03 04:05:42;;;;;;;12.38;9.75;;;13.70;99.90;;;;;;5030470;28;20017;-79
2023/09/03 04:08:07;;;;;;;11.98;10.15;;;13.70;99.90;;;;;;5030291;28;20026;-79
2023/09/03 04:10:33;;;;;;;13.70;10.50;;;13.70;99.90;;;;;;5030347;28;20025;-74
2023/09/03 04:12:59;;;;;;;12.32;9.95;;;13.70;99.90;;;;;;5028738;28;20072;-74
2023/09/03 04:15:24;;;;;;;12.48;10.68;;;13.70;99.90;;;;;;5028691;28;20078;-74
2023/09/03 04:17:50;;;;;;;14.55;11.50;;;13.70;99.90;;;;;;5030076;28;20118;-80
2023/09/03 04:20:15;;;;;;;16.52;11.80;;;13.70;99.90;;;;;;5030081;28;20028;-80
2023/09/03 04:22:41;;;;;;;15.27;12.32;;;13.80;99.90;;;;;;5041131;28;20382;-74
2023/09/03 04:25:07;;;;;;;20.63;13.52;;;13.80;99.90;;;;;;5040862;28;20053;-79
2023/09/03 04:27:32;;;;;;;21.83;14.52;;;13.90;99.90;;;;;;5029430;28;20039;-74
2023/09/03 04:29:58;;;;;;;19.05;13.13;;;13.90;99.90;;;;;;5034150;28;20017;-79
2023/09/03 04:32:24;;;;;;;18.80;14.95;;;13.90;99.90;;;;;;5048605;28;20033;-74
2023/09/03 04:34:50;;;;;;;18.30;13.82;;;14.00;99.90;;;;;;5047673;28;20479;-74
2023/09/03 04:37:16;;;;;;;18.35;14.82;;;14.00;99.90;;;;;;5040543;28;20049;-75
2023/09/03 04:39:41;;;;;;;19.95;16.60;;;14.10;99.90;;;;;;5031830;28;20022;-80
2023/09/03 04:42:07;;;;;;;16.10;14.40;;;14.10;99.90;;;;;;5029625;28;20017;-79
2023/09/03 04:44:33;;;;;;;15.55;13.80;;;14.20;99.90;;;;;;5035844;28;20100;-74
2023/09/03 04:46:59;;;;;;;15.85;14.15;;;14.20;99.90;;;;;;5029499;28;20018;-79
2023/09/03 04:49:25;;;;;;;16.38;13.88;;;14.20;99.90;;;;;;5030260;28;20433;-80
2023/09/03 04:51:50;;;;;;;15.27;13.57;;;14.30;99.90;;;;;;5020080;28;20387;-80
2023/09/03 04:54:16;;;;;;;16.17;13.20;;;14.30;99.90;;;;;;5033921;28;20035;-80
2023/09/03 04:56:45;;;;;;;15.60;14.00;;;14.40;99.90;;;;;;5037500;28;20018;-73
2023/09/03 04:59:10;;;;;;;17.92;14.63;;;14.40;99.90;;;;;;5028228;28;20120;-79
2023/09/03 05:01:36;;;;;;;16.38;14.15;;;14.50;99.90;;;;;;5029480;28;20104;-79
2023/09/03 05:04:03;;;;;;;15.48;13.48;;;14.50;99.90;;;;;;5034240;28;20359;-74
2023/09/03 05:06:28;;;;;;;15.18;13.57;;;14.60;99.90;;;;;;5048773;28;20017;-73
2023/09/03 05:08:54;;;;;;;17.77;14.45;;;14.70;99.90;;;;;;5030040;28;20081;-73
2023/09/03 05:11:20;;;;;;;15.77;14.07;;;14.70;99.90;;;;;;5035024;28;20022;-74
2023/09/03 05:13:45;;;;;;;15.35;13.75;;;14.80;99.90;;;;;;5032852;28;20033;-74
2023/09/03 05:16:11;;;;;;;16.02;14.02;;;14.90;99.90;;;;;;5031547;28;20029;-78
2023/09/03 05:18:37;;;;;;;17.33;12.75;;;14.90;99.90;;;;;;5034052;28;20078;-80
2023/09/03 05:21:09;;;;;;;17.63;14.60;;;14.90;99.90;;;;;;5031672;28;20089;-74
2023/09/03 05:23:35;;;;;;;16.88;14.05;;;15.00;99.90;;;;;;5029076;28;20041;-80
2023/09/03 05:26:02;;;;;;;16.63;15.00;;;15.20;99.90;;;;;;5036389;28;20025;-74
2023/09/03 05:28:28;;;;;;;16.60;14.13;;;15.30;99.90;;;;;;5034929;28;20363;-74
2023/09/03 05:30:53;;;;;;;15.55;13.40;;;15.40;99.90;;;;;;5027557;28;20074;-80
2023/09/03 05:33:19;;;;;;;17.35;14.00;;;15.50;99.90;;;;;;5027018;28;20066;-80
2023/09/03 05:35:45;;;;;;;12.52;11.27;;;15.60;99.90;;;;;;5028720;28;20034;-79
2023/09/03 05:38:11;;;;;;;12.38;11.13;;;15.70;99.90;;;;;;5036232;28;20061;-74
2023/09/03 05:40:36;;;;;;;10.90;9.80;;;15.80;99.90;;;;;;5034602;28;20072;-74
2023/09/03 05:43:02;;;;;;;10.52;9.05;;;15.90;99.90;;;;;;5051335;28;20028;-79
2023/09/03 05:45:27;;;;;;;11.95;10.13;;;16.00;99.90;;;;;;5037674;28;20120;-80
2023/09/03 05:47:53;;;;;;;10.27;9.27;;;16.10;99.90;;;;;;5031948;28;20395;-80
2023/09/03 05:50:18;;;;;;;9.48;8.65;;;16.20;99.90;;;;;;5021669;28;20101;-80
2023/09/03 05:52:44;;;;;;;10.55;9.45;;;16.30;99.90;;;;;;5036090;28;20390;-80
2023/09/03 05:55:10;;;;;;;8.07;7.38;;;16.40;99.90;;;;;;5042299;28;20501;-80
2023/09/03 05:57:37;;;;;;;8.43;7.63;;;16.40;99.90;;;;;;5034788;28;20021;-74
2023/09/03 06:00:05;;;;;;;9.05;8.25;;;16.50;99.90;;;;;;5030653;28;20071;-80
2023/09/03 06:02:32;;;;;;;8.13;7.38;;;16.50;99.90;;;;;;5022443;28;20029;-80
2023/09/03 06:04:58;;;;;;;6.95;6.35;;;16.50;99.90;;;;;;5028811;28;20521;-80
2023/09/03 06:07:24;;;;;;;8.10;7.30;;;16.50;99.90;;;;;;5029672;28;20053;-80
2023/09/03 06:09:49;;;;;;;7.05;6.43;;;16.50;99.90;;;;;;5032061;28;20033;-81
2023/09/03 06:12:15;;;;;;;8.38;6.85;;;16.60;99.90;;;;;;5023893;28;20029;-80
2023/09/03 06:14:41;;;;;;;5.88;5.38;;;16.70;99.90;;;;;;5032732;28;20021;-80
2023/09/03 06:17:07;;;;;;;6.28;5.65;;;16.70;99.90;;;;;;5030475;28;20459;-80
2023/09/03 06:19:32;;;;;;;6.10;5.60;;;16.70;99.90;;;;;;5030463;28;20017;-74
2023/09/03 06:21:58;;;;;;;6.53;6.00;;;16.90;99.90;;;;;;5026157;28;20028;-74
2023/09/03 06:24:23;;;;;;;7.25;6.60;;;17.00;99.90;;;;;;5034796;28;20026;-74
2023/09/03 06:26:49;;;;;;;7.15;6.07;;;17.10;99.90;;;;;;5048443;28;20419;-74
2023/09/03 06:29:15;;;;;;;5.70;4.88;;;17.20;99.90;;;;;;5035786;28;20582;-74
2023/09/03 06:31:41;;;;;;;6.30;5.80;;;17.30;99.90;;;;;;5030527;28;20082;-75
2023/09/03 06:34:06;;;;;;;5.90;5.40;;;17.40;99.90;;;;;;5029108;28;20038;-74
2023/09/03 06:36:32;;;;;;;5.05;4.60;;;17.40;99.90;;;;;;5037128;28;20407;-75
2023/09/03 06:38:58;;;;;;;7.28;5.50;;;17.40;99.90;;;;;;5030113;28;20129;-75
2023/09/03 06:41:23;;;;;;;5.63;5.05;;;17.40;99.90;;;;;;5033919;28;20024;-74
2023/09/03 06:43:49;;;;;;;8.15;4.70;;;17.30;99.90;;;;;;5030594;28;20466;-74
2023/09/03 06:46:15;;;;;;;5.60;5.10;;;17.40;99.90;;;;;;5037962;28;20371;-75
2023/09/03 06:48:40;;;;;;;5.38;4.88;;;17.40;99.90;;;;;;5029978;28;20026;-75
2023/09/03 06:51:06;;;;;;;5.43;4.90;;;17.40;99.90;;;;;;5023732;28;20025;-74
2023/09/03 06:53:32;;;;;;;7.10;6.50;;;17.40;99.90;;;;;;5038577;28;20041;-74
2023/09/03 06:55:57;;;;;;;6.78;6.07;;;17.40;99.90;;;;;;5046313;28;20478;-74
2023/09/03 06:58:23;;;;;;;7.20;5.82;;;17.50;99.90;;;;;;5048986;28;20093;-74
2023/09/03 07:00:49;;;;;;;6.82;6.00;;;17.50;99.90;;;;;;5045257;28;20022;-74
2023/09/03 07:03:15;;;;;;;6.10;5.60;;;17.50;99.90;;;;;;5029980;28;20082;-74
2023/09/03 07:05:41;;;;;;;6.20;5.60;;;17.60;99.90;;;;;;5030987;28;20021;-74
2023/09/03 07:08:07;;;;;;;6.95;6.35;;;17.50;99.90;;;;;;5027218;28;20542;-74
2023/09/03 07:10:33;;;;;;;6.72;5.63;;;17.50;99.90;;;;;;5035427;28;20088;-74
2023/09/03 07:12:59;;;;;;;6.82;6.10;;;17.60;99.90;;;;;;5029597;28;20037;-74
2023/09/03 07:15:25;;;;;;;7.00;6.28;;;17.60;99.90;;;;;;5038527;28;20375;-74
2023/09/03 07:17:51;;;;;;;6.70;5.85;;;17.80;99.90;;;;;;5038119;28;20104;-74
2023/09/03 07:20:17;;;;;;;6.40;5.90;;;18.00;99.90;;;;;;5035657;28;20053;-74
2023/09/03 07:22:43;;;;;;;6.70;6.10;;;18.00;99.90;;;;;;5039705;28;20066;-74
2023/09/03 07:25:09;;;;;;;6.10;5.50;;;18.10;99.90;;;;;;5042459;28;20088;-74
2023/09/03 07:27:38;;;;;;;7.13;5.57;;;18.30;99.90;;;;;;5031187;28;20108;-74
2023/09/03 07:30:05;;;;;;;6.85;5.40;;;18.30;99.90;;;;;;5040192;28;20402;-76
2023/09/03 07:32:31;;;;;;;6.72;5.80;;;18.30;99.90;;;;;;5035934;28;20037;-74
2023/09/03 07:34:57;;;;;;;7.30;6.60;;;18.40;99.90;;;;;;5047505;28;20029;-74
2023/09/03 07:37:22;;;;;;;7.20;6.50;;;18.60;99.90;;;;;;5038356;28;20056;-81
2023/09/03 07:39:48;;;;;;;7.03;6.35;;;18.80;99.90;;;;;;5029392;28;20021;-74
2023/09/03 07:42:14;;;;;;;8.65;5.68;;;18.70;99.90;;;;;;5042615;28;20083;-81
2023/09/03 07:44:40;;;;;;;10.43;7.30;;;18.70;99.90;;;;;;5042162;28;20028;-74
2023/09/03 07:47:05;;;;;;;7.20;6.45;;;18.70;99.90;;;;;;5028906;28;20022;-75
2023/09/03 07:49:31;;;;;;;7.43;6.65;;;18.60;99.90;;;;;;5024476;28;20034;-82
2023/09/03 07:51:56;;;;;;;7.75;6.40;;;18.60;99.90;;;;;;5022825;28;20028;-81
2023/09/03 07:54:22;;;;;;;7.28;6.32;;;18.50;99.90;;;;;;5029473;28;20046;-82
2023/09/03 07:56:48;;;;;;;7.68;6.68;;;18.60;99.90;;;;;;5030496;28;20068;-82
2023/09/03 07:59:13;;;;;;;9.32;6.55;;;18.50;99.90;;;;;;5038109;28;20033;-83
2023/09/03 08:01:39;;;;;;;8.00;6.53;;;18.60;99.90;;;;;;5029028;28;20032;-83
2023/09/03 08:04:05;;;;;;;6.93;6.00;;;18.60;99.90;;;;;;5018871;28;20078;-83
2023/09/03 08:06:31;;;;;;;7.43;6.30;;;18.50;99.90;;;;;;5040867;28;20029;-83
2023/09/03 08:08:57;;;;;;;7.25;6.28;;;18.70;99.90;;;;;;5030110;28;20123;-83
2023/09/03 08:11:23;;;;;;;8.20;5.63;;;18.70;99.90;;;;;;5019472;28;20057;-83
2023/09/03 08:13:57;;;;;;;7.45;5.75;;;18.70;99.90;;;;;;5028200;28;20079;-83
2023/09/03 08:16:23;;;;;;;8.05;6.32;;;18.80;99.90;;;;;;5029419;28;20090;-82
2023/09/03 08:18:48;;;;;;;7.70;5.53;;;18.90;99.90;;;;;;5029237;28;20390;-83
2023/09/03 08:21:14;;;;;;;7.07;6.28;;;19.00;99.90;;;;;;5028673;28;20487;-83
2023/09/03 08:23:41;;;;;;;9.27;6.68;;;19.20;99.90;;;;;;5031740;28;20022;-75
2023/09/03 08:26:07;;;;;;;6.05;5.50;;;19.00;99.90;;;;;;5029484;28;20078;-76
2023/09/03 08:28:33;;;;;;;11.70;6.50;;;19.00;99.90;;;;;;5034764;28;20025;-76
2023/09/03 08:30:59;;;;;;;8.18;6.43;;;19.20;99.90;;;;;;5032902;28;20021;-83
2023/09/03 08:33:25;;;;;;;7.10;6.30;;;19.30;99.90;;;;;;5026930;28;20048;-83
2023/09/03 08:35:50;;;;;;;7.60;6.20;;;19.60;99.90;;;;;;5025677;28;20061;-83
2023/09/03 08:38:16;;;;;;;6.43;5.82;;;19.80;99.90;;;;;;5028139;28;20045;-75
2023/09/03 08:40:43;;;;;;;5.13;4.70;;;19.70;99.90;;;;;;5023850;28;20074;-84
2023/09/03 08:43:10;;;;;;;6.38;5.22;;;19.70;99.90;;;;;;5030366;28;20029;-76
2023/09/03 08:45:49;;;;;;;5.80;4.75;;;19.60;99.90;;;;;;5026789;28;20021;-83
2023/09/03 08:48:16;;;;;;;5.43;4.82;;;19.70;99.90;;;;;;5027774;28;20026;-76
2023/09/03 08:50:42;;;;;;;5.72;4.18;;;19.80;91.20;;;;;;5016173;28;20030;-84
2023/09/03 08:53:10;;;;;;;4.00;3.70;;;20.00;89.40;;;;;;5028235;28;20030;-76
2023/09/03 08:55:36;;;;;;;6.30;3.92;;;20.10;81.30;;;;;;5025505;28;20858;-83
2023/09/03 08:58:02;;;;;;;6.93;5.15;;;20.30;79.90;;;;;;5028402;28;20116;-83
2023/09/03 09:00:28;;;;;;;4.97;4.18;;;20.20;77.80;;;;;;5028545;28;20572;-83
2023/09/03 09:02:54;;;;;;;5.22;4.07;;;20.30;77.60;;;;;;5029667;28;20029;-84
2023/09/03 09:05:21;;;;;;;5.75;4.80;;;20.30;76.20;;;;;;5030477;28;20105;-84
2023/09/03 09:07:48;;;;;;;18.05;5.28;;;20.30;75.10;;;;;;5029223;28;20032;-76
2023/09/03 09:10:16;;;;;;;5.47;4.97;;;20.30;74.10;;;;;;5027604;28;20022;-83
2023/09/03 09:12:58;;;;;;;6.25;4.80;;;20.30;74.10;;;;;;5032307;28;20086;-83
2023/09/03 09:15:23;;;;;;;5.18;4.40;;;20.20;74.50;;;;;;5033187;28;20056;-77
2023/09/03 09:17:49;;;;;;;4.80;4.32;;;20.20;74.40;;;;;;5031965;28;20037;-84
2023/09/03 09:20:18;;;;;;;5.25;4.05;;;20.30;74.10;;;;;;5032792;28;20029;-84
2023/09/03 09:22:45;;;;;;;7.30;5.40;;;20.40;75.00;;;;;;5031536;28;20585;-83
2023/09/03 09:25:37;;;;;;;5.72;4.60;;;20.50;73.10;;;;;;5032787;28;20343;-76
2023/09/03 09:28:13;;;;;;;5.27;3.80;;;20.70;75.40;;;;;;5045863;28;20599;-83
2023/09/03 09:30:59;;;;;;;4.30;3.80;;;21.00;75.50;;;;;;5043812;28;20838;-84
2023/09/03 09:33:26;;;;;;;5.72;4.25;;;21.00;68.10;;;;;;5032196;28;20053;-83
2023/09/03 09:35:52;;;;;;;7.00;5.35;;;20.60;69.80;;;;;;5031466;28;20547;-83
2023/09/03 09:38:18;;;;;;;5.78;4.18;;;20.60;72.80;;;;;;5047349;28;20120;-75
2023/09/03 09:40:44;;;;;;;6.13;3.95;;;20.60;71.10;;;;;;5044377;28;20550;-76
2023/09/03 09:43:10;;;;;;;5.85;4.30;;;20.60;73.00;;;;;;5034244;28;20100;-76
2023/09/03 09:45:47;;;;;;;6.10;3.58;;;20.80;73.70;;;;;;5036605;28;20028;-75
2023/09/03 09:48:12;;;;;;;3.53;2.97;;;21.00;72.10;;;;;;5045139;28;20022;-76
2023/09/03 09:50:40;;;;;;;3.25;2.90;;;20.90;71.10;;;;;;5047486;28;20508;-84
2023/09/03 09:53:27;;;;;;;3.63;2.70;;;20.90;72.70;;;;;;5032142;28;20094;-83
2023/09/03 09:56:00;;;;;;;2.53;2.33;;;21.10;71.10;;;;;;5032393;28;20025;-83
2023/09/03 09:58:36;;;;;;;3.25;2.95;;;21.20;70.20;;;;;;5031259;28;20475;-76
2023/09/03 10:01:02;;;;;;;2.97;2.70;;;21.10;68.70;;;;;;5042328;28;20050;-76
2023/09/03 10:03:41;;;;;;;2.65;2.42;;;20.70;69.70;;;;;;5044020;28;20022;-76
2023/09/03 10:06:08;;;;;;;2.88;2.58;;;20.70;71.80;;;;;;5032059;28;20022;-75
2023/09/03 10:08:35;;;;;;;3.53;3.00;;;20.80;72.80;;;;;;5031964;28;20052;-75
2023/09/03 10:11:01;;;;;;;2.70;2.40;;;21.00;73.90;;;;;;5048594;28;20039;-83
2023/09/03 10:13:28;;;;;;;2.90;2.70;;;20.90;72.70;;;;;;5035770;28;20414;-83
2023/09/03 10:15:54;;;;;;;2.10;2.00;;;20.60;71.30;;;;;;5032196;28;20033;-82
2023/09/03 10:18:21;;;;;;;1.95;1.85;;;20.70;71.60;;;;;;5032151;28;20029;-83
2023/09/03 10:20:48;;;;;;;2.67;2.47;;;20.80;70.10;;;;;;5031949;28;20090;-76
2023/09/03 10:23:16;;;;;;;2.30;2.10;;;21.10;70.70;;;;;;5031096;28;20021;-75
2023/09/03 10:25:43;;;;;;;2.05;1.88;;;21.20;69.00;;;;;;5030597;28;20022;-83
2023/09/03 10:28:09;;;;;;;2.47;2.25;;;21.40;70.30;;;;;;5031399;28;20048;-83
2023/09/03 10:30:40;;;;;;;3.67;2.70;;;21.50;68.40;;;;;;5030821;28;20143;-76
2023/09/03 10:33:07;;;;;;;2.80;2.60;;;21.30;68.10;;;;;;5034715;28;20082;-76
2023/09/03 10:35:33;;;;;;;4.07;2.55;;;21.00;68.90;;;;;;5030679;28;20010;-83
2023/09/03 10:37:59;;;;;;;3.00;2.75;;;20.70;69.00;;;;;;5043589;28;20042;-75
2023/09/03 10:40:28;;;;;;;4.10;3.70;;;20.50;72.50;;;;;;5030298;28;20037;-83
2023/09/03 10:43:21;;;;;;;5.15;4.30;;;20.30;78.10;;;;;;5031329;28;20010;-75
2023/09/03 10:46:07;;;;;;;5.30;4.60;;;19.90;81.80;;;;;;5030962;28;20146;-75
2023/09/03 10:48:35;;;;;;;5.68;5.15;;;19.90;85.30;;;;;;5031163;28;20386;-83
2023/09/03 10:51:01;;;;;;;6.38;5.65;;;19.90;85.20;;;;;;5018749;28;20112;-84
2023/09/03 10:53:40;;;;;;;5.10;4.70;;;20.20;83.80;;;;;;5042583;28;20112;-83
2023/09/03 10:56:07;;;;;;;7.13;4.63;;;20.50;79.00;;;;;;5031188;28;20050;-83
2023/09/03 10:58:32;;;;;;;4.22;3.83;;;20.80;79.90;;;;;;5031518;28;20030;-83
2023/09/03 11:01:21;;;;;;;4.40;4.00;;;20.80;77.20;;;;;;5017433;28;20364;-84
2023/09/03 11:03:52;;;;;;;3.92;3.55;;;20.60;77.90;;;;;;5030179;28;20052;-75
2023/09/03 11:06:25;;;;;;;4.03;3.72;;;20.50;78.90;;;;;;5030089;28;20018;-82
2023/09/03 11:09:03;;;;;;;6.78;3.72;;;20.30;79.30;;;;;;5030828;28;20031;-83
2023/09/03 11:11:33;;;;;;;5.03;3.67;;;20.40;78.80;;;;;;5031107;28;20021;-75
2023/09/03 11:13:59;;;;;;;3.42;3.13;;;20.60;78.70;;;;;;5018321;28;20112;-83
2023/09/03 11:16:33;;;;;;;3.45;3.15;;;20.70;76.90;;;;;;5030753;28;20028;-75
2023/09/03 11:19:00;;;;;;;3.95;3.42;;;20.80;73.70;;;;;;5037862;28;20478;-83
2023/09/03 11:21:27;;;;;;;4.80;4.00;;;20.80;72.80;;;;;;5034427;28;20022;-75
2023/09/03 11:24:03;;;;;;;4.18;3.78;;;20.70;73.30;;;;;;5039538;28;20066;-84
2023/09/03 11:26:30;;;;;;;3.83;3.45;;;20.50;75.70;;;;;;5038707;28;20096;-75
2023/09/03 11:28:56;;;;;;;4.00;3.60;;;20.30;76.10;;;;;;5039208;28;20400;-83
2023/09/03 11:31:23;;;;;;;4.75;3.10;;;20.50;76.40;;;;;;5029266;28;20062;-75
2023/09/03 11:33:50;;;;;;;3.75;3.40;;;20.60;73.60;;;;;;5030736;28;20029;-76
2023/09/03 11:36:24;;;;;;;3.90;3.53;;;20.80;71.30;;;;;;5030623;28;20032;-84
2023/09/03 11:38:56;;;;;;;4.15;3.15;;;20.80;71.40;;;;;;5030716;28;20049;-83
2023/09/03 11:41:22;;;;;;;3.70;3.08;;;21.00;69.10;;;;;;5029331;28;20112;-76
2023/09/03 11:43:48;;;;;;;4.50;3.83;;;21.10;69.10;;;;;;5030611;28;20094;-83
2023/09/03 11:46:16;;;;;;;4.43;2.92;;;21.30;68.50;;;;;;5031097;28;20090;-76
2023/09/03 11:48:47;;;;;;;3.60;3.28;;;21.40;67.10;;;;;;5050419;28;20028;-83
2023/09/03 11:51:27;;;;;;;3.40;3.03;;;21.20;66.90;;;;;;5019232;28;20018;-76
2023/09/03 11:53:53;;;;;;;3.35;2.85;;;21.10;63.60;;;;;;5030284;28;20073;-83
2023/09/03 11:56:22;;;;;;;6.10;2.75;;;21.30;61.20;;;;;;5040826;28;20062;-83
2023/09/03 11:58:52;;;;;;;6.18;3.00;;;21.40;62.10;;;;;;5047467;28;20042;-76
2023/09/03 12:01:18;;;;;;;3.63;3.33;;;21.60;62.60;;;;;;5039622;28;20489;-84
2023/09/03 12:03:44;;;;;;;4.63;3.28;;;21.50;62.70;;;;;;5033646;28;20100;-76
2023/09/03 12:06:10;;;;;;;4.82;3.28;;;21.60;64.50;;;;;;5030436;28;20101;-75
2023/09/03 12:08:36;;;;;;;3.95;3.55;;;21.80;64.10;;;;;;5045384;28;20029;-75
2023/09/03 12:11:02;;;;;;;3.53;3.22;;;21.90;63.40;;;;;;5040322;28;20112;-76
2023/09/03 12:13:32;;;;;;;4.30;3.90;;;21.90;63.30;;;;;;5047767;28;20037;-76
2023/09/03 12:16:16;;;;;;;6.50;4.13;;;21.70;65.50;;;;;;5038512;28;20017;-76
2023/09/03 12:18:57;;;;;;;4.85;4.43;;;21.50;65.40;;;;;;5029275;28;20094;-76
2023/09/03 12:21:33;;;;;;;3.83;3.53;;;21.60;66.10;;;;;;5048155;28;20013;-76
2023/09/03 12:24:02;;;;;;;4.00;3.08;;;21.80;65.10;;;;;;5032074;28;20022;-84
2023/09/03 12:26:28;;;;;;;3.08;2.80;;;21.80;62.30;;;;;;5028952;28;20013;-76
2023/09/03 12:28:54;;;;;;;4.32;3.17;;;21.90;60.90;;;;;;5028478;28;20440;-83
2023/09/03 12:31:21;;;;;;;4.35;2.97;;;22.20;62.00;;;;;;5029225;28;20123;-76
2023/09/03 12:33:50;;;;;;;4.90;3.10;;;22.00;61.90;;;;;;5030051;28;20476;-83
2023/09/03 12:36:21;;;;;;;4.18;3.25;;;21.80;62.90;;;;;;5029870;28;20061;-84
2023/09/03 12:38:53;;;;;;;3.08;2.88;;;21.50;63.70;;;;;;5028292;28;20018;-82
2023/09/03 12:41:24;;;;;;;5.55;3.90;;;21.30;64.00;;;;;;5029481;28;20116;-82
2023/09/03 12:43:50;;;;;;;3.00;2.72;;;21.30;65.50;;;;;;5032020;28;20056;-84
2023/09/03 12:46:16;;;;;;;3.25;2.50;;;21.30;64.10;;;;;;5042256;28;20040;-83